Time;durP1;ratioP1;P1;durP2;ratioP2;P2;SDS_P1;SDS_P2;PMS_P1;PMS_P2;Temp;Humidity;BMP_temperature;BMP_pressure;BME280_temperature;BME280_humidity;BME280_pressure;Samples;Min_cycle;Max_cycle;Signal;HPM_P1;HPM_P2
2021/01/31 00:01:02;;;;;;;2.70;1.92;;;;;;;5.58;81.40;99143.70;1752544;81;20951;-73
2021/01/31 00:03:30;;;;;;;2.33;1.77;;;;;;;5.58;81.38;99132.44;1752666;81;20943;-75
2021/01/31 00:06:02;;;;;;;5.25;1.70;;;;;;;5.57;81.40;99134.69;1752736;81;21042;-73
2021/01/31 00:08:29;;;;;;;2.55;1.45;;;;;;;5.56;81.33;99127.83;1752670;81;21450;-71
2021/01/31 00:10:58;;;;;;;3.05;1.45;;;;;;;5.55;81.12;99130.05;1752780;81;21570;-74
2021/01/31 00:13:28;;;;;;;2.70;2.50;;;;;;;5.53;80.79;99120.20;1752685;81;21034;-72
2021/01/31 00:15:56;;;;;;;2.62;1.30;;;;;;;5.53;80.92;99122.81;1752623;81;20942;-73
2021/01/31 00:18:27;;;;;;;4.28;1.82;;;;;;;5.52;80.62;99113.35;1752568;81;20954;-72
2021/01/31 00:20:57;;;;;;;1.80;1.60;;;;;;;5.52;80.92;99108.98;1752498;82;21373;-72
2021/01/31 00:23:25;;;;;;;2.90;1.75;;;;;;;5.52;81.03;99101.66;1752438;82;20927;-72
2021/01/31 00:25:52;;;;;;;4.28;2.22;;;;;;;5.51;81.16;99099.97;1752570;82;20955;-73
2021/01/31 00:28:23;;;;;;;6.90;3.50;;;;;;;5.49;81.08;99101.39;1752393;82;21030;-73
2021/01/31 00:30:50;;;;;;;6.45;3.33;;;;;;;5.48;81.11;99101.00;1752487;82;21014;-73
2021/01/31 00:33:25;;;;;;;3.55;2.37;;;;;;;5.49;81.17;99090.12;1752536;82;21388;-74
2021/01/31 00:35:54;;;;;;;3.58;2.52;;;;;;;5.47;81.23;99103.69;1752620;82;20923;-76
2021/01/31 00:38:23;;;;;;;3.50;2.05;;;;;;;5.47;81.51;99089.39;1752408;82;20955;-73
2021/01/31 00:40:52;;;;;;;4.28;2.75;;;;;;;5.45;81.50;99088.20;1752414;82;21022;-74
2021/01/31 00:43:21;;;;;;;5.20;2.62;;;;;;;5.46;81.52;99089.03;1752336;82;20959;-73
2021/01/31 00:45:50;;;;;;;3.85;3.10;;;;;;;5.45;81.53;99079.55;1752350;82;21815;-74
2021/01/31 00:48:18;;;;;;;3.05;2.52;;;;;;;5.44;81.58;99083.09;1752484;82;21542;-76
2021/01/31 00:50:46;;;;;;;5.40;2.15;;;;;;;5.42;81.48;99079.28;1752546;82;21049;-75
2021/01/31 00:53:16;;;;;;;3.47;2.50;;;;;;;5.44;81.35;99083.09;1752462;82;21172;-75
2021/01/31 00:55:46;;;;;;;4.58;2.25;;;;;;;5.43;81.36;99080.97;1752367;82;21049;-73
2021/01/31 00:58:17;;;;;;;2.35;2.00;;;;;;;5.43;81.40;99081.44;1752214;82;21029;-73
2021/01/31 01:00:46;;;;;;;3.47;2.87;;;;;;;5.43;81.32;99071.87;1722734;82;21073;-72
2021/01/31 01:03:16;;;;;;;2.85;2.20;;;;;;;5.42;81.35;99075.39;1752423;82;21053;-72
2021/01/31 01:05:48;;;;;;;4.95;2.72;;;;;;;5.40;81.36;99066.41;1750742;82;21042;-72
2021/01/31 01:08:16;;;;;;;4.92;2.90;;;;;;;5.39;81.40;99071.70;1752353;82;21041;-73
2021/01/31 01:10:46;;;;;;;2.83;2.42;;;;;;;5.40;81.33;99075.50;1752253;82;21341;-73
2021/01/31 01:13:13;;;;;;;4.25;2.90;;;;;;;5.38;81.38;99072.17;1752240;82;20970;-71
2021/01/31 01:15:41;;;;;;;3.75;2.65;;;;;;;5.37;81.44;99069.19;1752232;82;20983;-71
2021/01/31 01:18:09;;;;;;;4.85;3.75;;;;;;;5.39;81.46;99065.20;1750698;82;21124;-72
2021/01/31 01:20:37;;;;;;;6.33;4.28;;;;;;;5.40;81.49;99070.75;1744219;82;21599;-71
2021/01/31 01:23:04;;;;;;;5.70;3.50;;;;;;;5.39;81.46;99069.92;1744271;82;21347;-74
2021/01/31 01:25:32;;;;;;;5.70;3.42;;;;;;;5.38;81.45;99069.56;1744251;82;21078;-71
2021/01/31 01:28:01;;;;;;;6.45;3.77;;;;;;;5.39;81.40;99067.32;1744441;82;21019;-72
2021/01/31 01:30:30;;;;;;;6.28;3.67;;;;;;;5.40;81.45;99063.81;1744534;82;21041;-71
2021/01/31 01:32:59;;;;;;;4.87;2.87;;;;;;;5.39;81.52;99062.13;1744358;82;20951;-72
2021/01/31 01:35:28;;;;;;;6.67;3.60;;;;;;;5.39;81.57;99066.49;1744241;82;21365;-73
2021/01/31 01:37:56;;;;;;;4.58;3.08;;;;;;;5.40;81.66;99072.05;1743988;82;21078;-73
2021/01/31 01:40:34;;;;;;;4.08;3.42;;;;;;;5.41;81.65;99055.53;1744075;82;20971;-71
2021/01/31 01:43:03;;;;;;;4.40;3.17;;;;;;;5.40;81.68;99069.45;1744258;82;20947;-72
2021/01/31 01:45:31;;;;;;;4.45;2.62;;;;;;;5.42;81.63;99054.59;1744351;82;21322;-71
2021/01/31 01:48:07;;;;;;;4.42;2.75;;;;;;;5.43;81.52;99058.05;1744219;82;21789;-72
2021/01/31 01:50:51;;;;;;;6.17;3.90;;;;;;;5.42;81.52;99045.48;1744211;82;20967;-71
2021/01/31 01:53:22;;;;;;;4.22;3.12;;;;;;;5.43;81.45;99046.34;1738341;82;21057;-72
2021/01/31 01:56:14;;;;;;;4.33;3.30;;;;;;;5.44;81.45;99045.41;1744245;82;20976;-74
2021/01/31 01:58:43;;;;;;;5.53;3.42;;;;;;;5.42;81.39;99035.09;1661789;85;20985;-73
2021/01/31 02:01:11;;;;;;;6.80;3.47;;;;;;;5.40;81.39;99036.52;1661884;85;21161;-73
2021/01/31 02:03:41;;;;;;;4.00;3.17;;;;;;;5.42;81.38;99043.36;1662031;86;21116;-74
2021/01/31 02:06:15;;;;;;;5.67;3.02;;;;;;;5.42;81.49;99041.59;1661857;85;20986;-72
2021/01/31 02:08:43;;;;;;;5.53;3.08;;;;;;;5.42;81.53;99030.37;1662031;85;20942;-73
2021/01/31 02:11:14;;;;;;;5.10;3.25;;;;;;;5.44;81.60;99045.41;1661958;85;20973;-74
2021/01/31 02:13:45;;;;;;;3.22;2.92;;;;;;;5.44;81.62;99041.50;1661920;85;21393;-74
2021/01/31 02:16:27;;;;;;;4.95;3.25;;;;;;;5.45;81.62;99041.86;1661925;85;20989;-74
2021/01/31 02:20:03;;;;;;;4.83;2.65;;;;;;;5.48;81.62;99050.30;1775459;79;22739;-71
2021/01/31 02:25:50;;;;;;;3.52;2.62;;;;;;;5.50;81.69;99058.02;1777225;79;23110;-74
2021/01/31 02:28:49;;;;;;;3.80;2.65;;;;;;;5.47;81.75;99072.49;1749758;81;20923;-75
2021/01/31 02:31:42;;;;;;;4.37;3.72;;;;;;;5.48;81.75;99063.30;1749685;80;21374;-74
2021/01/31 02:34:35;;;;;;;5.97;4.08;;;;;;;5.48;81.75;99071.58;1749620;82;21065;-73
2021/01/31 02:37:28;;;;;;;6.65;3.22;;;;;;;5.46;81.86;99070.84;1749740;80;21094;-73
2021/01/31 02:40:11;;;;;;;3.33;2.40;;;;;;;5.47;81.81;99065.55;1749698;82;21016;-73
2021/01/31 02:43:09;;;;;;;4.55;3.33;;;;;;;5.49;81.91;99085.79;1749682;80;20939;-73
2021/01/31 02:45:48;;;;;;;7.28;3.98;;;;;;;5.48;82.02;99084.58;1749708;82;21801;-72
2021/01/31 02:48:36;;;;;;;5.60;3.85;;;;;;;5.46;82.23;99100.27;1749738;80;21440;-72
2021/01/31 02:51:24;;;;;;;6.87;4.35;;;;;;;5.49;82.29;99093.59;1749565;82;21026;-72
2021/01/31 02:54:12;;;;;;;4.47;3.77;;;;;;;5.50;82.36;99097.02;1749606;82;20946;-72
2021/01/31 02:56:56;;;;;;;5.20;3.37;;;;;;;5.53;82.34;99095.50;1749525;82;20950;-73
2021/01/31 02:59:33;;;;;;;3.75;2.95;;;;;;;5.54;82.42;99097.19;1720012;82;23220;-73
2021/01/31 03:02:07;;;;;;;7.92;3.10;;;;;;;5.55;82.51;99096.25;1748917;80;20951;-73
2021/01/31 03:04:47;;;;;;;6.17;3.67;;;;;;;5.54;82.61;99104.99;1749596;82;21034;-73
2021/01/31 03:07:27;;;;;;;5.35;3.77;;;;;;;5.55;82.78;99104.88;1749559;82;20986;-73
2021/01/31 03:10:09;;;;;;;8.05;4.97;;;;;;;5.59;82.85;99115.92;1748199;82;20963;-73
2021/01/31 03:12:51;;;;;;;5.55;3.67;;;;;;;5.59;82.86;99119.83;1749432;81;21567;-73
2021/01/31 03:15:23;;;;;;;7.12;3.92;;;;;;;5.59;82.93;99112.02;1749567;82;20955;-73
2021/01/31 03:18:08;;;;;;;7.35;3.47;;;;;;;5.59;83.01;99117.22;1749730;82;21477;-73
2021/01/31 03:20:39;;;;;;;6.78;4.80;;;;;;;5.58;83.12;99117.70;1749666;82;21014;-74
2021/01/31 03:23:13;;;;;;;7.62;4.47;;;;;;;5.60;83.24;99098.94;1749079;81;20971;-73
2021/01/31 03:25:48;;;;;;;12.20;5.03;;;;;;;5.62;83.30;99094.91;1736380;82;21938;-74
2021/01/31 03:28:16;;;;;;;10.38;5.40;;;;;;;5.63;83.35;99095.30;1736598;82;21042;-75
2021/01/31 03:30:46;;;;;;;9.78;5.47;;;;;;;5.63;83.31;99099.20;1738612;82;21066;-73
2021/01/31 03:33:20;;;;;;;7.60;4.62;;;;;;;5.64;83.27;99095.65;1738655;82;20983;-73
2021/01/31 03:35:49;;;;;;;7.58;5.90;;;;;;;5.65;83.29;99096.03;1738466;82;21011;-73
2021/01/31 03:38:24;;;;;;;15.25;9.33;;;;;;;5.63;83.36;99095.30;1717209;82;21718;-72
2021/01/31 03:40:55;;;;;;;7.53;5.03;;;;;;;5.64;83.46;99087.02;1737116;82;20964;-71
2021/01/31 03:43:25;;;;;;;9.80;5.87;;;;;;;5.64;83.53;99091.75;1736897;81;21106;-73
2021/01/31 03:46:49;;;;;;;13.03;7.05;;;;;;;5.63;83.43;99081.00;1736746;82;21007;-74
2021/01/31 03:49:45;;;;;;;9.13;4.90;;;;;;;5.63;83.33;99080.17;1736152;82;21003;-72
2021/01/31 03:52:13;;;;;;;10.53;5.97;;;;;;;5.65;83.08;99080.88;1736398;81;21808;-74
2021/01/31 03:54:42;;;;;;;5.78;4.80;;;;;;;5.64;83.08;99085.25;1736057;82;20968;-74
2021/01/31 03:57:17;;;;;;;9.78;4.65;;;;;;;5.66;82.96;99085.98;1735931;81;21378;-73
2021/01/31 04:00:18;;;;;;;7.22;5.40;;;;;;;5.72;82.82;99081.70;1890073;76;22785;-72
2021/01/31 04:02:53;;;;;;;8.33;5.90;;;;;;;5.71;82.79;99092.19;1861112;77;20990;-76
2021/01/31 04:05:23;;;;;;;8.65;5.90;;;;;;;5.71;82.53;99086.52;1823296;78;22257;-75
2021/01/31 04:07:52;;;;;;;7.65;5.28;;;;;;;5.70;82.31;99087.46;1823256;78;20948;-74
2021/01/31 04:10:20;;;;;;;9.48;5.47;;;;;;;5.72;82.09;99082.17;1823258;78;21381;-76
2021/01/31 04:12:54;;;;;;;5.25;3.95;;;;;;;5.71;81.82;99073.52;1823241;78;20988;-74
2021/01/31 04:15:40;;;;;;;7.08;4.47;;;;;;;5.68;81.68;99076.80;1823282;78;20910;-77
2021/01/31 04:18:08;;;;;;;5.95;4.60;;;;;;;5.64;81.76;99085.25;1821669;78;21782;-75
2021/01/31 04:20:36;;;;;;;5.53;4.08;;;;;;;5.60;81.62;99084.63;1823205;78;20999;-74
2021/01/31 04:23:04;;;;;;;5.58;4.85;;;;;;;5.59;81.48;99088.15;1823254;78;20905;-75
2021/01/31 04:25:32;;;;;;;4.47;3.17;;;;;;;5.64;81.41;99090.92;1823215;78;21003;-74
2021/01/31 04:28:10;;;;;;;4.87;3.40;;;;;;;5.66;81.11;99087.77;1823252;78;21124;-74
2021/01/31 04:30:39;;;;;;;4.67;3.75;;;;;;;5.68;80.91;99097.60;1823215;78;21379;-75
2021/01/31 04:33:08;;;;;;;5.50;4.10;;;;;;;5.69;80.74;99088.85;1823072;78;21035;-73
2021/01/31 04:35:35;;;;;;;6.03;4.35;;;;;;;5.68;80.58;99080.22;1791633;78;21050;-75
2021/01/31 04:38:04;;;;;;;6.33;4.33;;;;;;;5.71;80.47;99082.61;1823130;78;20920;-74
2021/01/31 04:40:32;;;;;;;7.83;4.15;;;;;;;5.70;80.27;99087.94;1823245;78;20924;-75
2021/01/31 04:43:02;;;;;;;5.05;4.20;;;;;;;5.70;80.12;99090.06;1823192;78;21458;-74
2021/01/31 04:45:34;;;;;;;4.95;3.98;;;;;;;5.70;80.20;99098.34;1823288;78;21386;-75
2021/01/31 04:48:32;;;;;;;8.63;6.17;;;;;;;5.70;80.14;99099.16;1822549;78;20956;-74
2021/01/31 04:51:24;;;;;;;4.10;3.75;;;;;;;5.70;80.13;99116.55;1823077;78;20928;-72
2021/01/31 04:54:18;;;;;;;5.85;4.10;;;;;;;5.68;80.01;99132.71;1823133;78;20928;-73
2021/01/31 04:57:14;;;;;;;5.37;4.22;;;;;;;5.66;80.08;99161.88;1823376;78;21789;-72
2021/01/31 04:59:46;;;;;;;5.55;4.00;;;;;;;5.67;80.08;99184.34;1801892;78;20967;-72
2021/01/31 05:02:29;;;;;;;5.37;4.25;;;;;;;5.68;80.09;99198.55;1829817;78;21039;-73
2021/01/31 05:04:59;;;;;;;7.95;4.30;;;;;;;5.70;80.02;99210.17;1830136;78;21110;-72
2021/01/31 05:07:35;;;;;;;8.20;4.70;;;;;;;5.70;79.97;99218.80;1829500;78;21026;-73
2021/01/31 05:10:08;;;;;;;6.87;5.45;;;;;;;5.70;79.83;99226.61;1829046;78;22358;-74
2021/01/31 05:12:51;;;;;;;7.35;5.67;;;;;;;5.71;79.69;99226.96;1828998;78;21540;-73
2021/01/31 05:15:27;;;;;;;7.50;5.62;;;;;;;5.72;79.54;99223.45;1821274;78;20999;-72
2021/01/31 05:17:58;;;;;;;10.50;7.05;;;;;;;5.76;79.36;99223.63;1829604;78;21007;-73
2021/01/31 05:20:30;;;;;;;7.28;5.78;;;;;;;5.78;79.25;99234.78;1829374;78;20975;-71
2021/01/31 05:22:59;;;;;;;7.92;6.20;;;;;;;5.80;79.19;99222.52;1828734;78;21444;-71
2021/01/31 05:25:30;;;;;;;12.03;7.58;;;;;;;5.79;79.00;99237.73;1828691;78;20992;-72
2021/01/31 05:28:00;;;;;;;9.85;7.47;;;;;;;5.81;79.02;99239.77;1828613;78;20917;-73
2021/01/31 05:30:30;;;;;;;12.43;8.78;;;;;;;5.84;78.92;99234.84;1828683;78;20975;-76
2021/01/31 05:33:13;;;;;;;11.15;9.08;;;;;;;5.89;78.75;99242.36;1828779;78;20995;-74
2021/01/31 05:35:49;;;;;;;11.12;8.73;;;;;;;5.90;78.54;99251.38;1828746;78;21366;-73
2021/01/31 05:38:40;;;;;;;10.93;8.05;;;;;;;5.95;78.31;99261.52;1828490;78;21099;-73
2021/01/31 05:41:45;;;;;;;11.35;9.45;;;;;;;5.97;78.21;99265.70;1828643;78;21007;-72
2021/01/31 05:44:22;;;;;;;;;;;;;;;5.98;78.06;99280.39;1831228;78;20964;-72
2021/01/31 05:46:55;;;;;;;15.70;11.38;;;;;;;5.96;77.75;99289.23;1828734;78;20482;-74
2021/01/31 05:49:40;;;;;;;16.10;13.25;;;;;;;5.92;77.52;99300.25;1828514;78;21258;-74
2021/01/31 05:52:28;;;;;;;15.43;11.97;;;;;;;5.92;77.08;99304.62;1820057;77;22796;-74
2021/01/31 05:54:56;;;;;;;17.48;13.93;;;;;;;5.85;76.88;99324.98;1756603;81;21022;-75
2021/01/31 05:57:34;;;;;;;18.07;14.78;;;;;;;5.80;76.28;99325.70;1766465;81;22116;-74
2021/01/31 06:00:28;;;;;;;16.32;13.40;;;;;;;5.73;75.74;99321.34;1756640;81;20991;-74
2021/01/31 06:03:03;;;;;;;14.95;12.75;;;;;;;5.64;74.86;99328.41;1766489;81;21077;-74
2021/01/31 06:05:32;;;;;;;17.25;14.20;;;;;;;5.49;74.60;99333.22;1756655;81;21002;-74
2021/01/31 06:08:26;;;;;;;19.05;15.23;;;;;;;5.40;74.78;99339.36;1766303;81;21037;-73
2021/01/31 06:11:08;;;;;;;19.27;15.15;;;;;;;5.36;74.67;99323.57;1756647;81;21335;-75
2021/01/31 06:13:36;;;;;;;23.30;16.35;;;;;;;5.32;74.30;99322.55;1766241;81;21096;-73
2021/01/31 06:16:08;;;;;;;16.82;13.85;;;;;;;5.23;74.00;99325.69;1756711;81;21353;-74
2021/01/31 06:18:56;;;;;;;18.82;15.18;;;;;;;5.21;73.97;99346.56;1765986;81;21060;-75
2021/01/31 06:21:42;;;;;;;18.52;14.35;;;;;;;5.30;74.04;99351.22;1756590;81;20911;-75
2021/01/31 06:24:47;;;;;;;17.30;14.18;;;;;;;5.57;73.86;99351.81;1766329;81;21417;-75
2021/01/31 06:27:30;;;;;;;17.82;14.60;;;;;;;5.78;72.90;99357.47;1756519;81;20970;-76
2021/01/31 06:30:16;;;;;;;19.45;15.53;;;;;;;5.85;72.10;99360.10;1766230;81;21045;-75
2021/01/31 06:32:46;;;;;;;17.02;14.13;;;;;;;5.83;71.69;99362.42;1756560;81;20939;-72
2021/01/31 06:35:16;;;;;;;21.80;16.62;;;;;;;5.76;71.54;99365.39;1739158;81;20930;-74
2021/01/31 06:38:10;;;;;;;21.62;16.97;;;;;;;5.71;71.71;99367.41;1756610;81;21322;-73
2021/01/31 06:41:04;;;;;;;17.35;14.43;;;;;;;5.64;71.87;99380.89;1766229;81;21121;-74
2021/01/31 06:43:54;;;;;;;14.87;13.05;;;;;;;5.61;71.96;99389.24;1753718;81;20974;-74
2021/01/31 06:46:52;;;;;;;15.25;12.78;;;;;;;5.60;71.91;99404.48;1766174;81;20998;-74
2021/01/31 06:49:54;;;;;;;18.17;14.60;;;;;;;5.60;72.05;99432.23;1722116;81;21018;-75
2021/01/31 06:52:39;;;;;;;18.73;14.43;;;;;;;5.60;72.20;99442.20;1746781;81;21936;-75
2021/01/31 06:55:25;;;;;;;16.62;12.93;;;;;;;5.61;72.17;99439.13;1815001;79;20950;-74
2021/01/31 06:58:08;;;;;;;17.62;13.30;;;;;;;5.56;71.54;99446.37;1815317;79;20962;-75
2021/01/31 07:01:04;;;;;;;20.85;14.05;;;;;;;5.45;71.03;99446.98;1745826;82;20915;-74
2021/01/31 07:04:05;;;;;;;18.23;14.10;;;;;;;5.32;70.30;99458.55;1752320;81;21055;-76
2021/01/31 07:07:09;;;;;;;18.62;15.58;;;;;;;5.18;70.71;99461.93;1688517;82;21365;-74
2021/01/31 07:10:31;;;;;;;21.15;14.80;;;;;;;5.04;70.85;99466.22;1724793;82;20990;-75
2021/01/31 07:13:41;;;;;;;24.12;19.98;;;;;;;4.90;70.48;99466.52;1724955;83;21404;-74
2021/01/31 07:16:29;;;;;;;19.48;14.13;;;;;;;4.81;71.03;99480.02;1724883;83;20986;-73
2021/01/31 07:19:18;;;;;;;16.57;13.03;;;;;;;4.73;70.77;99493.41;1724986;83;20978;-74
2021/01/31 07:21:58;;;;;;;19.25;14.78;;;;;;;4.63;70.66;99503.09;1725205;83;21388;-75
2021/01/31 07:24:45;;;;;;;15.88;12.65;;;;;;;4.59;70.96;99499.81;1852307;77;22730;-73
2021/01/31 07:27:34;;;;;;;15.30;12.85;;;;;;;4.51;70.76;99504.56;1819620;78;20951;-73
2021/01/31 07:30:13;;;;;;;18.10;13.75;;;;;;;4.42;70.63;99510.24;1750167;81;21199;-74
2021/01/31 07:33:09;;;;;;;17.55;13.53;;;;;;;4.35;70.76;99517.52;1819722;78;20978;-74
2021/01/31 07:36:07;;;;;;;19.80;14.80;;;;;;;4.32;70.59;99528.06;1820229;78;21013;-75
2021/01/31 07:38:55;;;;;;;18.10;14.55;;;;;;;4.19;70.25;99527.85;1750100;81;20939;-74
2021/01/31 07:41:24;;;;;;;18.85;13.75;;;;;;;4.11;70.37;99543.83;1820181;78;20938;-74
2021/01/31 07:43:55;;;;;;;17.05;13.78;;;;;;;4.11;70.61;99558.09;1820005;78;21034;-73
2021/01/31 07:46:23;;;;;;;19.55;14.58;;;;;;;4.10;70.46;99556.86;1819599;78;20962;-74
2021/01/31 07:48:56;;;;;;;13.32;11.80;;;;;;;4.09;70.27;99566.84;1819943;78;20930;-74
2021/01/31 07:51:37;;;;;;;17.48;12.07;;;;;;;4.06;70.35;99573.03;1750060;81;21034;-75
2021/01/31 07:54:27;;;;;;;16.55;12.37;;;;;;;4.01;70.61;99580.20;1819135;78;21415;-76
2021/01/31 07:56:56;;;;;;;14.30;11.88;;;;;;;3.94;70.39;99568.47;1815192;78;22266;-76
2021/01/31 07:59:27;;;;;;;13.50;11.25;;;;;;;3.92;70.60;99578.91;1820001;78;21368;-73
2021/01/31 08:01:55;;;;;;;15.20;12.68;;;;;;;3.91;70.56;99582.86;1750166;81;20938;-74
2021/01/31 08:04:37;;;;;;;14.20;11.10;;;;;;;3.86;70.45;99599.12;1819997;78;20942;-75
2021/01/31 08:07:06;;;;;;;13.83;11.03;;;;;;;3.82;70.24;99609.25;1820642;78;20958;-72
2021/01/31 08:09:44;;;;;;;12.95;9.85;;;;;;;3.74;69.48;99631.67;1821111;78;21375;-71
2021/01/31 08:12:16;;;;;;;13.10;10.10;;;;;;;3.70;69.75;99636.62;1750249;81;21041;-72
2021/01/31 08:15:13;;;;;;;;;;;;;;;3.66;69.83;99645.45;1792246;78;20954;-72
2021/01/31 08:17:59;;;;;;;16.40;12.28;;;;;;;3.64;69.88;99662.83;1811808;78;20423;-72
2021/01/31 08:20:32;;;;;;;18.30;12.55;;;;;;;3.57;68.96;99674.40;1750347;82;21025;-73
2021/01/31 08:23:14;;;;;;;14.38;10.40;;;;;;;3.39;68.99;99663.13;1819954;78;21453;-74
2021/01/31 08:25:58;;;;;;;17.27;12.73;;;;;;;3.22;68.82;99671.66;1750286;82;21054;-71
2021/01/31 08:28:35;;;;;;;16.42;11.78;;;;;;;3.07;68.98;99684.86;1803052;78;21037;-72
2021/01/31 08:31:14;;;;;;;14.93;10.25;;;;;;;2.95;68.63;99697.88;1750128;81;20946;-73
2021/01/31 08:33:44;;;;;;;17.12;12.37;;;;;;;2.87;68.64;99709.03;1819867;78;20922;-73
2021/01/31 08:36:23;;;;;;;20.90;14.55;;;;;;;2.80;68.02;99708.45;1816300;78;21452;-72
2021/01/31 08:38:53;;;;;;;25.25;16.50;;;;;;;2.73;67.32;99716.07;1749505;81;20962;-72
2021/01/31 08:41:38;;;;;;;28.05;18.30;;;;;;;2.67;66.92;99713.30;1819465;78;20931;-72
2021/01/31 08:44:17;;;;;;;30.43;19.57;;;;;;;2.66;67.17;99734.06;1819240;78;21042;-72
2021/01/31 08:47:00;;;;;;;32.20;18.42;;;;;;;2.63;67.06;99741.97;1819478;78;20919;-73
2021/01/31 08:49:29;;;;;;;33.83;19.20;;;;;;;2.59;66.68;99749.01;1749576;82;22284;-72
2021/01/31 08:52:11;;;;;;;26.85;16.62;;;;;;;2.59;67.04;99750.30;1819262;78;20997;-72
2021/01/31 08:54:39;;;;;;;30.10;16.95;;;;;;;2.56;67.21;99755.62;1819019;78;21013;-73
2021/01/31 08:57:09;;;;;;;22.15;15.85;;;;;;;2.55;67.67;99764.73;1819326;78;21554;-71
2021/01/31 08:59:45;;;;;;;21.62;14.83;;;;;;;2.48;67.81;99774.03;1819476;78;20947;-71
2021/01/31 09:02:19;;;;;;;34.83;20.80;;;;;;;2.41;67.98;99792.45;1749707;81;21832;-73
2021/01/31 09:04:59;;;;;;;25.57;17.45;;;;;;;2.28;67.64;99808.91;1819277;78;20994;-72
2021/01/31 09:07:33;;;;;;;24.20;16.85;;;;;;;2.18;67.93;99821.37;1819313;78;20962;-73
2021/01/31 09:10:16;;;;;;;21.40;16.40;;;;;;;2.07;67.39;99817.89;1819419;78;20935;-74
2021/01/31 09:12:45;;;;;;;21.15;15.93;;;;;;;1.98;67.41;99809.63;1819346;78;21111;-76
2021/01/31 09:15:21;;;;;;;21.62;16.07;;;;;;;1.92;67.23;99809.87;1762735;78;21368;-76
2021/01/31 09:17:49;;;;;;;22.35;15.75;;;;;;;1.85;67.17;99810.55;1819277;78;20939;-79
2021/01/31 09:20:23;;;;;;;20.17;15.65;;;;;;;1.80;67.47;99827.95;1749587;82;21043;-75
2021/01/31 09:22:51;;;;;;;20.17;14.80;;;;;;;1.76;67.47;99838.88;1819251;78;20946;-77
2021/01/31 09:25:22;;;;;;;20.92;14.98;;;;;;;1.76;67.50;99847.92;1819283;78;20986;-75
2021/01/31 09:27:59;;;;;;;20.57;14.80;;;;;;;1.78;67.57;99844.83;1819283;78;21379;-77
2021/01/31 09:30:28;;;;;;;20.72;13.80;;;;;;;1.78;65.34;99843.54;1819304;78;21092;-78
2021/01/31 09:33:08;;;;;;;19.50;13.48;;;;;;;1.77;64.78;99853.47;1720813;82;21552;-78
2021/01/31 09:35:38;;;;;;;20.62;14.98;;;;;;;1.82;65.22;99859.77;1819272;78;21056;-79
2021/01/31 09:38:21;;;;;;;27.15;16.52;;;;;;;1.93;65.08;99860.67;1819551;78;21001;-77
2021/01/31 09:40:50;;;;;;;20.48;15.45;;;;;;;2.06;65.09;99880.00;1819403;78;21851;-83
2021/01/31 09:43:22;;;;;;;18.95;14.75;;;;;;;2.15;63.25;99882.25;1749531;82;21552;-75
2021/01/31 09:45:53;;;;;;;21.77;15.08;;;;;;;2.16;62.36;99877.48;1819265;78;20943;-76
2021/01/31 09:48:24;;;;;;;22.65;15.65;;;;;;;2.14;61.69;99881.87;1819302;78;20923;-79
2021/01/31 09:50:59;;;;;;;22.05;15.23;;;;;;;2.12;61.99;99886.70;1819344;78;20923;-80
2021/01/31 09:53:40;;;;;;;24.72;15.72;;;;;;;2.13;62.15;99896.14;1749569;81;22389;-78
2021/01/31 09:56:14;;;;;;;22.30;15.38;;;;;;;2.15;62.08;99913.73;1819191;78;21451;-76
2021/01/31 09:58:46;;;;;;;20.08;15.65;;;;;;;2.18;61.54;99917.49;1814951;78;21010;-75
2021/01/31 10:01:28;;;;;;;25.37;16.70;;;;;;;2.18;61.56;99927.84;1749437;81;21038;-75
2021/01/31 10:04:03;;;;;;;19.25;14.95;;;;;;;2.21;61.11;99932.46;1819325;78;21083;-77
2021/01/31 10:06:43;;;;;;;20.62;15.45;;;;;;;2.21;61.11;99946.69;1819350;78;21412;-75
2021/01/31 10:09:11;;;;;;;19.42;15.32;;;;;;;2.21;61.41;99954.91;1819416;78;21349;-74
2021/01/31 10:11:44;;;;;;;18.95;13.30;;;;;;;2.26;61.46;99959.45;1819303;78;20986;-74
2021/01/31 10:14:17;;;;;;;16.48;12.63;;;;;;;2.33;61.45;99973.01;1819276;78;20934;-76
2021/01/31 10:16:52;;;;;;;20.88;13.40;;;;;;;2.40;60.68;99966.70;1889953;76;22628;-73
2021/01/31 10:19:22;;;;;;;19.27;13.90;;;;;;;2.32;60.30;99976.52;1828166;77;20997;-76
2021/01/31 10:21:56;;;;;;;20.70;13.98;;;;;;;2.27;60.11;99981.40;1860964;77;21368;-75
2021/01/31 10:24:31;;;;;;;18.48;12.98;;;;;;;2.30;60.75;99993.83;1861092;77;21088;-74
2021/01/31 10:27:23;;;;;;;19.67;13.62;;;;;;;2.41;60.90;99988.65;1860903;77;21039;-74
2021/01/31 10:29:53;;;;;;;19.92;13.65;;;;;;;2.67;60.38;99994.16;1860947;77;20918;-74
2021/01/31 10:32:38;;;;;;;19.70;14.75;;;;;;;2.91;60.37;99985.05;1860935;77;20879;-77
2021/01/31 10:35:33;;;;;;;21.02;14.95;;;;;;;3.00;59.67;99994.21;1860991;77;22275;-76
2021/01/31 10:38:31;;;;;;;19.92;13.98;;;;;;;3.00;59.80;100003.28;1861066;77;21348;-75
2021/01/31 10:41:00;;;;;;;16.23;12.90;;;;;;;2.92;59.27;100008.77;1860900;77;20953;-78
2021/01/31 10:43:28;;;;;;;19.35;13.20;;;;;;;2.86;59.56;100012.42;1860888;77;21467;-77
2021/01/31 10:45:56;;;;;;;18.95;13.13;;;;;;;2.77;59.63;100009.34;1860940;77;21001;-78
2021/01/31 10:48:24;;;;;;;18.92;14.15;;;;;;;2.69;59.45;100014.37;1860823;77;21153;-78
2021/01/31 10:50:52;;;;;;;17.23;12.47;;;;;;;2.61;60.04;100023.31;1860825;77;20938;-77
2021/01/31 10:53:21;;;;;;;15.48;11.57;;;;;;;2.55;60.52;100031.30;1860949;77;20918;-78
2021/01/31 10:55:51;;;;;;;16.25;12.05;;;;;;;2.49;60.59;100035.80;1860803;77;21005;-76
2021/01/31 10:58:24;;;;;;;;;;;;;;;2.51;60.77;100046.53;1863422;77;21049;-80
2021/01/31 11:00:52;;;;;;;13.22;10.00;;;;;;;2.49;60.34;100055.22;1860959;77;22523;-78
2021/01/31 11:03:20;;;;;;;11.33;8.95;;;;;;;2.59;59.35;100058.76;1860874;77;20922;-78
2021/01/31 11:05:48;;;;;;;9.28;7.53;;;;;;;2.58;59.24;100061.81;1860885;77;20946;-77
2021/01/31 11:08:16;;;;;;;10.63;8.20;;;;;;;2.59;58.26;100062.19;1860842;77;21416;-80
2021/01/31 11:10:44;;;;;;;11.12;7.50;;;;;;;2.59;58.03;100057.47;1860822;77;21013;-74
2021/01/31 11:13:13;;;;;;;12.05;9.38;;;;;;;2.73;57.90;100056.50;1860907;77;21177;-77
2021/01/31 11:15:41;;;;;;;9.68;7.83;;;;;;;2.92;58.16;100058.43;1860653;76;20910;-77
2021/01/31 11:18:09;;;;;;;8.68;7.00;;;;;;;3.01;58.26;100060.20;1860946;77;20938;-75
2021/01/31 11:20:37;;;;;;;8.70;6.62;;;;;;;3.03;58.08;100067.93;1860859;77;20974;-75
2021/01/31 11:23:05;;;;;;;8.88;6.05;;;;;;;3.02;57.78;100078.72;1860862;77;20974;-74
2021/01/31 11:25:33;;;;;;;8.33;7.25;;;;;;;3.02;57.90;100093.42;1860871;77;21348;-75
2021/01/31 11:28:02;;;;;;;7.03;5.65;;;;;;;3.17;57.30;100104.97;1860175;77;20942;-76
2021/01/31 11:30:31;;;;;;;6.33;4.90;;;;;;;3.25;57.02;100116.73;1860260;77;20902;-75
2021/01/31 11:32:59;;;;;;;6.05;5.45;;;;;;;3.28;56.54;100119.66;1860194;77;20938;-75
2021/01/31 11:35:28;;;;;;;6.33;5.20;;;;;;;3.22;56.69;100116.83;1860278;77;20990;-77
2021/01/31 11:37:56;;;;;;;6.78;5.95;;;;;;;3.14;55.90;100129.25;1860354;77;22287;-74
2021/01/31 11:40:25;;;;;;;7.72;6.17;;;;;;;3.02;56.50;100134.86;1860174;77;21016;-68
2021/01/31 11:42:53;;;;;;;7.22;5.10;;;;;;;2.92;56.52;100143.89;1860263;77;20922;-80
2021/01/31 11:45:22;;;;;;;6.55;5.50;;;;;;;2.78;56.94;100157.30;1860196;77;21081;-72
2021/01/31 11:47:51;;;;;;;6.12;5.22;;;;;;;2.65;57.23;100149.14;1860254;77;20922;-69
2021/01/31 11:50:20;;;;;;;7.65;5.92;;;;;;;2.44;57.70;100163.20;1860241;77;21162;-70
2021/01/31 11:52:48;;;;;;;8.90;6.08;;;;;;;2.27;57.75;100165.53;1860208;77;21408;-70
2021/01/31 11:55:18;;;;;;;7.90;6.00;;;;;;;2.10;58.34;100175.58;1860315;77;20994;-72
2021/01/31 11:57:46;;;;;;;7.15;6.10;;;;;;;2.02;59.16;100184.44;1860181;77;20970;-72
2021/01/31 12:00:16;;;;;;;8.38;6.62;;;;;;;2.01;59.51;100189.19;1860350;77;21041;-75
2021/01/31 12:02:44;;;;;;;7.83;6.95;;;;;;;2.06;58.88;100191.62;1860249;77;21356;-77
2021/01/31 12:05:16;;;;;;;12.82;7.95;;;;;;;2.07;59.36;100195.47;1860218;77;20902;-74
2021/01/31 12:07:43;;;;;;;11.22;7.53;;;;;;;2.06;59.07;100194.22;1860470;77;21313;-79
2021/01/31 12:10:14;;;;;;;6.90;6.17;;;;;;;2.09;59.07;100195.43;1860163;77;20914;-73
2021/01/31 12:12:43;;;;;;;7.03;5.97;;;;;;;2.15;59.24;100204.27;1860315;77;20890;-74
2021/01/31 12:15:13;;;;;;;9.48;6.62;;;;;;;2.19;59.97;100209.74;1860062;77;21787;-73
2021/01/31 12:17:41;;;;;;;9.50;6.22;;;;;;;2.26;59.71;100215.56;1858113;77;20925;-74
2021/01/31 12:20:11;;;;;;;7.97;6.17;;;;;;;2.33;59.76;100226.11;1858161;76;20923;-74